CFEXF CYVR-CYCD
Flight info
| Callsign | CFEXF |
|---|---|
| Flight time | 0h 18m |
| Altitude | 6000 |
| Route | YVR V342 ARMAC DCT YCD |
| Aircraft | C208/L-SDFGR/C |
Departure
| Time | 2026-05-03 22:34 |
|---|---|
| Airport | Vancouver International Airport (CYVR) |
Arrival
| Time | 2026-05-03 22:53 |
|---|---|
| Airport | Nanaimo Airport (CYCD) |
| Time | Latitude | Longitude | Altitude | Speed | Heading |
|---|---|---|---|---|---|
| 2026-05-03 21:43 | 49.18926 | -123.17340 | 8 ft | 0 kts | 345° |
| 2026-05-03 21:45 | 49.18925 | -123.17340 | 8 ft | 0 kts | 345° |
| 2026-05-03 21:58 | 49.18921 | -123.17340 | 8 ft | 0 kts | 341° |
| 2026-05-03 21:58 | 49.18926 | -123.17340 | 8 ft | 0 kts | 345° |
| 2026-05-03 22:02 | 49.18921 | -123.17340 | 8 ft | 0 kts | 341° |
| 2026-05-03 22:02 | 49.18926 | -123.17340 | 8 ft | 0 kts | 345° |
| 2026-05-03 22:28 | 49.18931 | -123.17342 | 8 ft | 0 kts | 345° |
| 2026-05-03 22:29 | 49.18932 | -123.17362 | 8 ft | 6 kts | 204° |
| 2026-05-03 22:30 | 49.18858 | -123.17393 | 8 ft | 15 kts | 181° |
| 2026-05-03 22:30 | 49.18821 | -123.17310 | 8 ft | 8 kts | 93° |
| 2026-05-03 22:30 | 49.18809 | -123.17159 | 8 ft | 18 kts | 100° |
| 2026-05-03 22:30 | 49.18789 | -123.16984 | 8 ft | 20 kts | 100° |
| 2026-05-03 22:31 | 49.18758 | -123.16718 | 8 ft | 30 kts | 99° |
| 2026-05-03 22:31 | 49.18728 | -123.16456 | 8 ft | 19 kts | 101° |
| 2026-05-03 22:31 | 49.18699 | -123.16295 | 8 ft | 14 kts | 123° |
| 2026-05-03 22:31 | 49.18637 | -123.16176 | 9 ft | 13 kts | 109° |
| 2026-05-03 22:32 | 49.18606 | -123.16050 | 9 ft | 13 kts | 146° |
| 2026-05-03 22:32 | 49.18582 | -123.16036 | 9 ft | 0 kts | 173° |
| 2026-05-03 22:32 | 49.18573 | -123.16035 | 9 ft | 6 kts | 178° |
| 2026-05-03 22:32 | 49.18501 | -123.16062 | 10 ft | 15 kts | 211° |
| 2026-05-03 22:33 | 49.18483 | -123.16150 | 9 ft | 0 kts | 284° |
| 2026-05-03 22:33 | 49.18491 | -123.16220 | 9 ft | 18 kts | 282° |
| 2026-05-03 22:33 | 49.18536 | -123.16617 | 6 ft | 56 kts | 280° |
| 2026-05-03 22:34 | 49.18596 | -123.17311 | 48 ft | 74 kts | 279° |
| 2026-05-03 22:34 | 49.18672 | -123.18107 | 320 ft | 78 kts | 277° |
| 2026-05-03 22:34 | 49.18724 | -123.18987 | 593 ft | 82 kts | 271° |
| 2026-05-03 22:34 | 49.18675 | -123.19715 | 843 ft | 69 kts | 271° |
| 2026-05-03 22:35 | 49.18704 | -123.20474 | 976 ft | 74 kts | 280° |
| 2026-05-03 22:35 | 49.18779 | -123.21238 | 1146 ft | 71 kts | 277° |
| 2026-05-03 22:35 | 49.18841 | -123.21996 | 1257 ft | 71 kts | 277° |
| 2026-05-03 22:35 | 49.18937 | -123.22738 | 1376 ft | 70 kts | 280° |
| 2026-05-03 22:36 | 49.19004 | -123.23439 | 1556 ft | 64 kts | 277° |
| 2026-05-03 22:36 | 49.19059 | -123.24131 | 1668 ft | 67 kts | 279° |
| 2026-05-03 22:36 | 49.19131 | -123.24897 | 1779 ft | 79 kts | 278° |
| 2026-05-03 22:36 | 49.19209 | -123.25784 | 1896 ft | 88 kts | 278° |
| 2026-05-03 22:37 | 49.19294 | -123.26738 | 2013 ft | 92 kts | 278° |
| 2026-05-03 22:37 | 49.19282 | -123.27730 | 2124 ft | 100 kts | 246° |
| 2026-05-03 22:37 | 49.19008 | -123.28681 | 2217 ft | 99 kts | 258° |
| 2026-05-03 22:37 | 49.18842 | -123.29698 | 2323 ft | 98 kts | 256° |
| 2026-05-03 22:38 | 49.18673 | -123.30704 | 2423 ft | 97 kts | 257° |
| 2026-05-03 22:38 | 49.18505 | -123.31708 | 2517 ft | 98 kts | 256° |
| 2026-05-03 22:38 | 49.18339 | -123.32726 | 2615 ft | 100 kts | 257° |
| 2026-05-03 22:38 | 49.18168 | -123.33779 | 2717 ft | 103 kts | 257° |
| 2026-05-03 22:39 | 49.17996 | -123.34848 | 2817 ft | 104 kts | 257° |
| 2026-05-03 22:39 | 49.17841 | -123.35835 | 2906 ft | 100 kts | 256° |
| 2026-05-03 22:39 | 49.17680 | -123.36870 | 2988 ft | 104 kts | 257° |
| 2026-05-03 22:39 | 49.17506 | -123.38002 | 3081 ft | 116 kts | 257° |
| 2026-05-03 22:40 | 49.17314 | -123.39237 | 3187 ft | 122 kts | 256° |
| 2026-05-03 22:40 | 49.17079 | -123.40511 | 3285 ft | 126 kts | 253° |
| 2026-05-03 22:40 | 49.16801 | -123.41794 | 3390 ft | 128 kts | 250° |
| 2026-05-03 22:40 | 49.16472 | -123.43069 | 3486 ft | 130 kts | 248° |
| 2026-05-03 22:41 | 49.16113 | -123.44340 | 3591 ft | 131 kts | 246° |
| 2026-05-03 22:41 | 49.15728 | -123.45604 | 3686 ft | 132 kts | 244° |
| 2026-05-03 22:41 | 49.15318 | -123.46858 | 3790 ft | 132 kts | 243° |
| 2026-05-03 22:41 | 49.14886 | -123.48098 | 3889 ft | 133 kts | 241° |
| 2026-05-03 22:42 | 49.14431 | -123.49324 | 3988 ft | 133 kts | 239° |
| 2026-05-03 22:42 | 49.14011 | -123.50558 | 4071 ft | 133 kts | 255° |
| 2026-05-03 22:42 | 49.14059 | -123.51942 | 4159 ft | 132 kts | 289° |
| 2026-05-03 22:42 | 49.14332 | -123.53284 | 4260 ft | 132 kts | 286° |
| 2026-05-03 22:43 | 49.14584 | -123.54635 | 4363 ft | 132 kts | 286° |
| 2026-05-03 22:43 | 49.14817 | -123.55996 | 4460 ft | 133 kts | 284° |
| 2026-05-03 22:43 | 49.15025 | -123.57370 | 4560 ft | 133 kts | 283° |
| 2026-05-03 22:43 | 49.15170 | -123.58766 | 4661 ft | 134 kts | 268° |
| 2026-05-03 22:44 | 49.14968 | -123.60155 | 4761 ft | 134 kts | 254° |
| 2026-05-03 22:44 | 49.14723 | -123.61533 | 4856 ft | 135 kts | 255° |
| 2026-05-03 22:44 | 49.14479 | -123.62920 | 4952 ft | 136 kts | 255° |
| 2026-05-03 22:44 | 49.14232 | -123.64311 | 5047 ft | 136 kts | 255° |
| 2026-05-03 22:45 | 49.13986 | -123.65684 | 5144 ft | 136 kts | 255° |
| 2026-05-03 22:45 | 49.13736 | -123.67078 | 5243 ft | 136 kts | 255° |
| 2026-05-03 22:45 | 49.13486 | -123.68471 | 5338 ft | 136 kts | 255° |
| 2026-05-03 22:45 | 49.13286 | -123.69880 | 5436 ft | 136 kts | 259° |
| 2026-05-03 22:46 | 49.13099 | -123.71293 | 5532 ft | 136 kts | 259° |
| 2026-05-03 22:46 | 49.12909 | -123.72712 | 5630 ft | 137 kts | 259° |
| 2026-05-03 22:46 | 49.12637 | -123.74096 | 5722 ft | 138 kts | 236° |
| 2026-05-03 22:46 | 49.11992 | -123.75177 | 5818 ft | 138 kts | 230° |
| 2026-05-03 22:47 | 49.11382 | -123.76305 | 5923 ft | 138 kts | 230° |
| 2026-05-03 22:47 | 49.10771 | -123.77430 | 6022 ft | 138 kts | 230° |
| 2026-05-03 22:47 | 49.10155 | -123.78565 | 6039 ft | 144 kts | 230° |
| 2026-05-03 22:47 | 49.09509 | -123.79753 | 6045 ft | 147 kts | 230° |
| 2026-05-03 22:48 | 49.08852 | -123.80953 | 6043 ft | 149 kts | 228° |
| 2026-05-03 22:48 | 49.08125 | -123.82105 | 5991 ft | 153 kts | 224° |
| 2026-05-03 22:48 | 49.07340 | -123.83131 | 5755 ft | 145 kts | 213° |
| 2026-05-03 22:48 | 49.06450 | -123.83655 | 5578 ft | 134 kts | 190° |
| 2026-05-03 22:49 | 49.05482 | -123.83954 | 4937 ft | 146 kts | 189° |
| 2026-05-03 22:49 | 49.04493 | -123.84175 | 4502 ft | 138 kts | 185° |
| 2026-05-03 22:49 | 49.03533 | -123.84313 | 3863 ft | 146 kts | 184° |
| 2026-05-03 22:49 | 49.02510 | -123.84387 | 3215 ft | 149 kts | 181° |
| 2026-05-03 22:50 | 49.01465 | -123.84389 | 2453 ft | 151 kts | 180° |
| 2026-05-03 22:50 | 49.00476 | -123.84556 | 2046 ft | 131 kts | 206° |
| 2026-05-03 22:50 | 48.99933 | -123.85452 | 1869 ft | 108 kts | 255° |
| 2026-05-03 22:50 | 48.99860 | -123.86540 | 1637 ft | 104 kts | 289° |
| 2026-05-03 22:51 | 49.00379 | -123.87190 | 1360 ft | 105 kts | 360° |
| 2026-05-03 22:51 | 49.01131 | -123.87059 | 1021 ft | 109 kts | 359° |
| 2026-05-03 22:51 | 49.01855 | -123.87105 | 684 ft | 105 kts | 359° |
| 2026-05-03 22:51 | 49.02629 | -123.87088 | 574 ft | 111 kts | 5° |
| 2026-05-03 22:52 | 49.03373 | -123.87059 | 432 ft | 105 kts | 1° |
| 2026-05-03 22:52 | 49.04094 | -123.87050 | 273 ft | 103 kts | 3° |
| 2026-05-03 22:52 | 49.04788 | -123.87033 | 128 ft | 96 kts | 4° |
| 2026-05-03 22:52 | 49.05417 | -123.87016 | 100 ft | 83 kts | 359° |
| 2026-05-03 22:53 | 49.05896 | -123.87003 | 101 ft | 51 kts | 359° |
| 2026-05-03 22:53 | 49.06120 | -123.87003 | 102 ft | 29 kts | 1° |
| 2026-05-03 22:53 | 49.06339 | -123.87015 | 102 ft | 22 kts | 324° |
| 2026-05-03 22:53 | 49.06348 | -123.87129 | 100 ft | 0 kts | 263° |
| 2026-05-03 22:54 | 49.06340 | -123.87159 | 100 ft | 6 kts | 237° |
| 2026-05-03 22:54 | 49.06267 | -123.87241 | 100 ft | 20 kts | 186° |
| 2026-05-03 22:55 | 49.06134 | -123.87248 | 100 ft | 16 kts | 182° |
| 2026-05-03 22:55 | 49.06022 | -123.87247 | 100 ft | 21 kts | 181° |
| 2026-05-03 22:55 | 49.05827 | -123.87249 | 100 ft | 31 kts | 178° |
| 2026-05-03 22:55 | 49.05618 | -123.87259 | 100 ft | 25 kts | 182° |
| 2026-05-03 22:56 | 49.05472 | -123.87260 | 100 ft | 19 kts | 181° |
| 2026-05-03 22:56 | 49.05378 | -123.87264 | 100 ft | 8 kts | 206° |
| 2026-05-03 22:56 | 49.05381 | -123.87325 | 100 ft | 6 kts | 308° |
| 2026-05-03 22:56 | 49.05393 | -123.87347 | 100 ft | 0 kts | 309° |